Time;durP1;ratioP1;P1;durP2;ratioP2;P2;SDS_P1;SDS_P2;PMS_P1;PMS_P2;Temp;Humidity;BMP_temperature;BMP_pressure;BME280_temperature;BME280_humidity;BME280_pressure;Samples;Min_cycle;Max_cycle;Signal;HPM_P1;HPM_P2
2023/01/17 00:00:29;;;;;;;;;8.33;6.00;;;;;-146.37;100.00;59337.28;5039231;28;28467;-82
2023/01/17 00:02:56;;;;;;;;;6.67;6.33;;;;;-146.37;100.00;59337.28;5024366;28;29820;-82
2023/01/17 00:10:54;;;;;;;;;6.00;6.00;;;;;-146.37;100.00;59337.28;5041561;28;28429;-82
2023/01/17 00:13:20;;;;;;;;;6.67;6.67;;;;;-146.37;100.00;59337.28;5040084;28;28452;-82
2023/01/17 00:15:45;;;;;;;;;9.00;9.00;;;;;-146.37;100.00;59337.28;5025293;28;29444;-82
2023/01/17 00:18:11;;;;;;;;;8.33;6.00;;;;;-146.37;100.00;59337.28;5024842;28;27845;-82
2023/01/17 00:26:17;;;;;;;;;9.67;7.00;;;;;-146.37;100.00;59337.28;5041275;28;28452;-82
2023/01/17 01:35:41;;;;;;;;;5.00;5.00;;;;;-146.37;100.00;59337.28;5039860;28;28498;-81
2023/01/17 01:38:07;;;;;;;;;5.00;5.00;;;;;-146.37;100.00;59337.28;5038504;28;29947;-81
2023/01/17 01:40:33;;;;;;;;;5.33;4.67;;;;;-146.37;100.00;59337.28;5040306;28;28444;-82
2023/01/17 01:43:00;;;;;;;;;6.67;6.67;;;;;-146.37;100.00;59337.28;5039656;28;27865;-81
2023/01/17 01:45:31;;;;;;;;;5.33;3.67;;;;;-146.37;100.00;59337.28;5040183;28;28665;-81
2023/01/17 01:48:21;;;;;;;;;6.00;5.00;;;;;-146.37;100.00;59337.28;5039337;28;29282;-81
2023/01/17 01:50:48;;;;;;;;;10.00;6.00;;;;;-146.37;100.00;59337.28;5038074;28;28606;-81
2023/01/17 01:53:15;;;;;;;;;6.33;6.33;;;;;-146.37;100.00;59337.28;5023289;28;28300;-81
2023/01/17 01:55:42;;;;;;;;;7.00;5.00;;;;;-146.37;100.00;59337.28;5040405;28;28519;-81
2023/01/17 01:58:17;;;;;;;;;7.00;6.33;;;;;-146.37;100.00;59337.28;5039913;28;30034;-82
2023/01/17 02:00:43;;;;;;;;;9.00;9.00;;;;;-146.37;100.00;59337.28;5038900;28;28508;-82
2023/01/17 02:03:14;;;;;;;;;6.33;6.33;;;;;-146.37;100.00;59337.28;5039757;28;27997;-82
2023/01/17 02:05:42;;;;;;;;;7.67;6.33;;;;;-146.37;100.00;59337.28;5040236;28;28605;-82
2023/01/17 02:08:11;;;;;;;;;6.67;5.67;;;;;-146.37;100.00;59337.28;5022771;28;30700;-82
2023/01/17 02:10:40;;;;;;;;;9.00;6.33;;;;;-146.37;100.00;59337.28;5040265;28;28537;-82
2023/01/17 02:13:08;;;;;;;;;8.33;5.00;;;;;-146.37;100.00;59337.28;5040110;28;27882;-82
2023/01/17 02:15:44;;;;;;;;;5.67;5.67;;;;;-146.37;100.00;59337.28;5021483;28;28491;-82
2023/01/17 02:18:54;;;;;;;;;6.00;6.00;;;;;-146.37;100.00;59337.28;5039767;28;28156;-82
2023/01/17 02:21:22;;;;;;;;;3.00;3.00;;;;;-146.37;100.00;59337.28;4957498;28;27878;-82
2023/01/17 02:24:15;;;;;;;;;5.33;5.33;;;;;-146.37;100.00;59337.28;4958221;28;28520;-82
2023/01/17 02:26:56;;;;;;;;;7.00;6.67;;;;;-146.37;100.00;59337.28;4958970;28;28503;-82
2023/01/17 02:30:10;;;;;;;;;6.33;5.33;;;;;-146.37;100.00;59337.28;4960331;28;30041;-82
2023/01/17 02:32:50;;;;;;;;;5.00;5.00;;;;;-146.37;100.00;59337.28;4958851;28;28660;-81
2023/01/17 02:35:28;;;;;;;;;10.33;9.00;;;;;-146.37;100.00;59337.28;4958007;28;28531;-82
2023/01/17 02:38:14;;;;;;;;;3.33;3.33;;;;;-146.37;100.00;59337.28;4958220;28;28562;-82
2023/01/17 02:40:42;;;;;;;;;6.33;5.00;;;;;-146.37;100.00;59337.28;4957424;28;28585;-82
2023/01/17 02:43:13;;;;;;;;;8.67;7.33;;;;;-146.37;100.00;59337.28;4958280;28;28826;-82
2023/01/17 02:45:39;;;;;;;;;10.33;7.33;;;;;-146.37;100.00;59337.28;4959089;28;27890;-80
2023/01/17 02:48:07;;;;;;;;;8.00;6.00;;;;;-146.37;100.00;59337.28;4958860;28;28064;-82
2023/01/17 02:50:44;;;;;;;;;6.00;5.67;;;;;-146.37;100.00;59337.28;4957760;28;28933;-82
2023/01/17 02:53:25;;;;;;;;;5.00;5.00;;;;;-146.37;100.00;59337.28;4958922;28;28624;-82
2023/01/17 02:56:38;;;;;;;;;7.33;5.00;;;;;-146.37;100.00;59337.28;5021029;28;28573;-82
2023/01/17 02:59:09;;;;;;;;;6.00;4.67;;;;;-146.37;100.00;59337.28;5037602;28;27979;-82
2023/01/17 03:01:49;;;;;;;;;5.67;5.67;;;;;-146.37;100.00;59337.28;5020176;28;30893;-82
2023/01/17 03:04:38;;;;;;;;;6.00;6.00;;;;;-146.37;100.00;59337.28;5036249;28;28673;-83
2023/01/17 03:07:10;;;;;;;;;7.67;7.33;;;;;-146.37;100.00;59337.28;5019698;28;28671;-82
2023/01/17 03:09:37;;;;;;;;;6.00;5.00;;;;;-146.37;100.00;59337.28;5020423;28;27965;-82
2023/01/17 03:12:04;;;;;;;;;8.33;8.33;;;;;-146.37;100.00;59337.28;5038488;28;28311;-82
2023/01/17 03:14:30;;;;;;;;;7.33;5.00;;;;;-146.37;100.00;59337.28;5036514;28;28641;-83
2023/01/17 03:16:56;;;;;;;;;9.33;7.33;;;;;-146.37;100.00;59337.28;5037277;28;27888;-82
2023/01/17 03:19:21;;;;;;;;;6.00;6.00;;;;;-146.37;100.00;59337.28;5037416;28;27888;-83
2023/01/17 03:21:48;;;;;;;;;6.00;6.00;;;;;-146.37;100.00;59337.28;5038771;28;29325;-82
2023/01/17 03:24:13;;;;;;;;;6.33;6.33;;;;;-146.37;100.00;59337.28;5038501;28;28529;-83
2023/01/17 03:26:38;;;;;;;;;5.00;5.00;;;;;-146.37;100.00;59337.28;5036477;28;28483;-82
2023/01/17 03:29:05;;;;;;;;;5.33;4.33;;;;;-146.37;100.00;59337.28;5037721;28;27873;-82
2023/01/17 03:31:31;;;;;;;;;8.00;7.67;;;;;-146.37;100.00;59337.28;5036841;28;30375;-82
2023/01/17 03:33:56;;;;;;;;;5.00;5.00;;;;;-146.37;100.00;59337.28;5021185;28;28766;-82
2023/01/17 03:36:21;;;;;;;;;2.67;2.67;;;;;-146.37;100.00;59337.28;5037567;28;28513;-81
2023/01/17 03:38:47;;;;;;;;;7.67;7.67;;;;;-146.37;100.00;59337.28;5035518;28;27980;-81
2023/01/17 03:41:13;;;;;;;;;6.00;4.00;;;;;-146.37;100.00;59337.28;5035701;28;30035;-82
2023/01/17 03:43:39;;;;;;;;;7.33;7.33;;;;;-146.37;100.00;59337.28;5036703;28;29446;-81
2023/01/17 03:46:16;;;;;;;;;7.67;5.67;;;;;-146.37;100.00;59337.28;5038495;28;28506;-81
2023/01/17 03:48:41;;;;;;;;;12.33;7.67;;;;;-146.37;100.00;59337.28;5020209;28;28574;-81
2023/01/17 03:51:06;;;;;;;;;6.67;6.67;;;;;-146.37;100.00;59337.28;5036710;28;28430;-81
2023/01/17 03:53:33;;;;;;;;;8.00;8.00;;;;;-146.37;100.00;59337.28;5038242;28;28446;-81
2023/01/17 03:55:59;;;;;;;;;6.00;6.00;;;;;-146.37;100.00;59337.28;5039939;28;28401;-82
2023/01/17 03:58:24;;;;;;;;;9.67;9.67;;;;;-146.37;100.00;59337.28;5038496;28;28564;-82
2023/01/17 04:00:49;;;;;;;;;9.00;6.33;;;;;-146.37;100.00;59337.28;5036735;28;28095;-82
2023/01/17 04:03:21;;;;;;;;;6.00;6.00;;;;;-146.37;100.00;59337.28;5020466;28;29198;-81
2023/01/17 04:05:47;;;;;;;;;9.00;9.00;;;;;-146.37;100.00;59337.28;5036088;28;28474;-82
2023/01/17 04:08:12;;;;;;;;;6.33;6.00;;;;;-146.37;100.00;59337.28;5039645;28;27865;-81
2023/01/17 04:10:38;;;;;;;;;9.00;8.00;;;;;-146.37;100.00;59337.28;5021835;28;30335;-82
2023/01/17 04:13:03;;;;;;;;;5.00;5.00;;;;;-146.37;100.00;59337.28;5037952;28;28809;-82
2023/01/17 04:15:28;;;;;;;;;7.00;7.00;;;;;-146.37;100.00;59337.28;5038335;28;28509;-82
2023/01/17 04:17:54;;;;;;;;;9.00;5.00;;;;;-146.37;100.00;59337.28;5036865;28;28437;-82
2023/01/17 04:20:33;;;;;;;;;6.00;5.33;;;;;-146.37;100.00;59337.28;5038041;28;28447;-82
2023/01/17 04:22:58;;;;;;;;;9.33;8.33;;;;;-146.37;100.00;59337.28;5037754;28;28631;-82
2023/01/17 04:25:24;;;;;;;;;11.33;9.00;;;;;-146.37;100.00;59337.28;5035797;28;28526;-81
2023/01/17 04:27:52;;;;;;;;;6.67;5.67;;;;;-146.37;100.00;59337.28;5036118;28;28582;-81
2023/01/17 04:30:18;;;;;;;;;11.00;8.33;;;;;-146.37;100.00;59337.28;5036899;28;29881;-81
2023/01/17 04:32:43;;;;;;;;;10.00;10.00;;;;;-146.37;100.00;59337.28;5037821;28;27968;-81
2023/01/17 04:35:08;;;;;;;;;11.00;9.67;;;;;-146.37;100.00;59337.28;5020570;28;28439;-82
2023/01/17 04:37:41;;;;;;;;;12.67;10.00;;;;;-146.37;100.00;59337.28;5020004;28;27929;-81
2023/01/17 04:40:08;;;;;;;;;12.33;9.67;;;;;-146.37;100.00;59337.28;5020587;28;30170;-81
2023/01/17 04:42:33;;;;;;;;;13.00;12.33;;;;;-146.37;100.00;59337.28;5018911;28;29341;-81
2023/01/17 04:44:59;;;;;;;;;10.33;10.33;;;;;-146.37;100.00;59337.28;5034282;28;28474;-82
2023/01/17 04:47:24;;;;;;;;;13.67;11.33;;;;;-146.37;100.00;59337.28;5036247;28;28430;-81
2023/01/17 04:49:50;;;;;;;;;10.67;10.67;;;;;-146.37;100.00;59337.28;5034257;28;29740;-82
2023/01/17 04:52:18;;;;;;;;;14.67;10.67;;;;;-146.37;100.00;59337.28;5018179;28;28858;-81
2023/01/17 04:54:44;;;;;;;;;14.33;13.67;;;;;-146.37;100.00;59337.28;5036438;28;28600;-81
2023/01/17 04:57:09;;;;;;;;;14.00;13.00;;;;;-146.37;100.00;59337.28;5018371;28;27932;-81
2023/01/17 04:59:34;;;;;;;;;12.00;8.00;;;;;-146.37;100.00;59337.28;5036348;28;29201;-80
2023/01/17 05:02:00;;;;;;;;;10.00;10.00;;;;;-146.37;100.00;59337.28;5018365;28;29571;-82
2023/01/17 05:04:25;;;;;;;;;10.00;10.00;;;;;-146.37;100.00;59337.28;5035380;28;28512;-82
2023/01/17 05:06:50;;;;;;;;;17.00;14.00;;;;;-146.37;100.00;59337.28;5037447;28;28381;-83
2023/01/17 05:09:16;;;;;;;;;13.33;10.00;;;;;-146.37;100.00;59337.28;5037874;28;28285;-82
2023/01/17 05:11:41;;;;;;;;;9.33;9.33;;;;;-146.37;100.00;59337.28;5020104;28;28891;-81
2023/01/17 05:14:08;;;;;;;;;11.67;11.67;;;;;-146.37;100.00;59337.28;5035766;28;27861;-81
2023/01/17 05:16:34;;;;;;;;;13.00;13.00;;;;;-146.37;100.00;59337.28;5034748;28;28470;-81
2023/01/17 05:18:59;;;;;;;;;17.00;12.67;;;;;-146.37;100.00;59337.28;5036882;28;28573;-82
2023/01/17 05:21:24;;;;;;;;;9.67;9.67;;;;;-146.37;100.00;59337.28;5036881;28;28485;-81
2023/01/17 05:23:50;;;;;;;;;10.67;9.67;;;;;-146.37;100.00;59337.28;5037018;28;28237;-82
2023/01/17 05:26:15;;;;;;;;;17.67;13.67;;;;;-146.37;100.00;59337.28;5037507;28;28585;-82
2023/01/17 05:28:41;;;;;;;;;10.00;10.00;;;;;-146.37;100.00;59337.28;5034829;28;29755;-81
2023/01/17 05:31:06;;;;;;;;;13.33;12.67;;;;;-146.37;100.00;59337.28;5037567;28;28467;-82
2023/01/17 05:33:31;;;;;;;;;16.00;14.00;;;;;-146.37;100.00;59337.28;5034867;28;28084;-81
2023/01/17 05:35:57;;;;;;;;;15.00;13.67;;;;;-146.37;100.00;59337.28;5036659;28;28432;-81
2023/01/17 05:38:22;;;;;;;;;13.67;12.67;;;;;-146.37;100.00;59337.28;5017612;28;30017;-81
2023/01/17 05:40:48;;;;;;;;;16.67;12.33;;;;;-146.37;100.00;59337.28;5017840;28;28716;-81
2023/01/17 05:43:15;;;;;;;;;13.00;12.67;;;;;-146.37;100.00;59337.28;5017596;28;28519;-81
2023/01/17 05:45:41;;;;;;;;;17.00;14.67;;;;;-146.37;100.00;59337.28;5035934;28;27924;-82
2023/01/17 05:48:06;;;;;;;;;18.67;16.33;;;;;-146.37;100.00;59337.28;5018997;28;29685;-81
2023/01/17 05:50:34;;;;;;;;;12.67;12.67;;;;;-146.37;100.00;59337.28;5036195;28;27928;-82
2023/01/17 05:53:05;;;;;;;;;16.67;16.67;;;;;-146.37;100.00;59337.28;5017823;28;28470;-81
2023/01/17 05:55:31;;;;;;;;;17.67;15.67;;;;;-146.37;100.00;59337.28;5019499;28;28795;-81
2023/01/17 05:57:57;;;;;;;;;11.00;10.00;;;;;-146.37;100.00;59337.28;5039635;28;30741;-81
2023/01/17 06:00:23;;;;;;;;;20.00;17.33;;;;;-146.37;100.00;59337.28;5023602;28;29813;-82
2023/01/17 06:02:49;;;;;;;;;18.33;16.33;;;;;-146.37;100.00;59337.28;5041900;28;28541;-81
2023/01/17 06:05:15;;;;;;;;;16.33;16.33;;;;;-146.37;100.00;59337.28;5042538;28;28523;-81
2023/01/17 06:07:45;;;;;;;;;15.33;15.33;;;;;-146.37;100.00;59337.28;5041058;28;30252;-82
2023/01/17 06:10:13;;;;;;;;;19.00;15.33;;;;;-146.37;100.00;59337.28;5024434;28;28450;-82
2023/01/17 06:12:39;;;;;;;;;24.67;21.67;;;;;-146.37;100.00;59337.28;5022564;28;28434;-81
2023/01/17 06:15:07;;;;;;;;;22.33;20.67;;;;;-146.37;100.00;59337.28;5039858;28;28485;-81
2023/01/17 06:17:32;;;;;;;;;15.33;11.67;;;;;-146.37;100.00;59337.28;5022311;28;29806;-82
2023/01/17 06:19:57;;;;;;;;;20.33;19.67;;;;;-146.37;100.00;59337.28;5040344;28;27884;-81
2023/01/17 06:22:23;;;;;;;;;18.00;18.00;;;;;-146.37;100.00;59337.28;5023176;28;28512;-81
2023/01/17 06:24:49;;;;;;;;;22.67;18.33;;;;;-146.37;100.00;59337.28;5025150;28;28463;-82
2023/01/17 06:27:14;;;;;;;;;22.33;21.00;;;;;-146.37;100.00;59337.28;5041336;28;28450;-82
2023/01/17 06:29:42;;;;;;;;;23.50;21.00;;;;;-146.37;100.00;59337.28;5022617;28;28760;-82
2023/01/17 06:32:08;;;;;;;;;21.33;21.33;;;;;-146.37;100.00;59337.28;5022952;28;27915;-82
2023/01/17 06:34:36;;;;;;;;;21.33;20.67;;;;;-146.37;100.00;59337.28;5042404;28;28548;-82
2023/01/17 06:37:01;;;;;;;;;26.33;24.33;;;;;-146.37;100.00;59337.28;5039207;28;29046;-81
2023/01/17 06:39:27;;;;;;;;;23.00;23.00;;;;;-146.37;100.00;59337.28;5040440;28;27950;-82
2023/01/17 06:41:52;;;;;;;;;28.00;21.00;;;;;-146.37;100.00;59337.28;5022767;28;28434;-82
2023/01/17 06:44:21;;;;;;;;;27.00;24.00;;;;;-146.37;100.00;59337.28;5039534;28;27896;-81
2023/01/17 06:53:30;;;;;;;;;19.00;17.33;;;;;-146.37;100.00;59337.28;5040124;28;28494;-82
2023/01/17 06:55:58;;;;;;;;;22.33;19.33;;;;;-146.37;100.00;59337.28;5043743;28;27892;-81
2023/01/17 06:58:24;;;;;;;;;30.33;27.33;;;;;-146.37;100.00;59337.28;5042477;28;30028;-81
2023/01/17 07:00:49;;;;;;;;;21.67;21.33;;;;;-146.37;100.00;59337.28;5041726;28;28535;-81
2023/01/17 07:03:21;;;;;;;;;25.33;24.33;;;;;-146.37;100.00;59337.28;5024819;28;28283;-82
2023/01/17 07:05:47;;;;;;;;;27.33;23.33;;;;;-146.37;100.00;59337.28;5042659;28;28558;-81
2023/01/17 07:08:13;;;;;;;;;24.00;23.33;;;;;-146.37;100.00;59337.28;5027956;28;30216;-82
2023/01/17 07:10:38;;;;;;;;;21.67;18.67;;;;;-146.37;100.00;59337.28;5042409;28;28514;-82
2023/01/17 07:13:04;;;;;;;;;25.67;21.67;;;;;-146.37;100.00;59337.28;5041978;28;27835;-82
2023/01/17 07:15:31;;;;;;;;;24.67;24.67;;;;;-146.37;100.00;59337.28;5023316;28;28533;-82
2023/01/17 07:17:59;;;;;;;;;27.67;23.33;;;;;-146.37;100.00;59337.28;5042462;28;28406;-82
2023/01/17 07:20:25;;;;;;;;;25.00;22.33;;;;;-146.37;100.00;59337.28;5041105;28;29337;-83
2023/01/17 07:22:50;;;;;;;;;26.00;24.00;;;;;-146.37;100.00;59337.28;5040724;28;28865;-83
2023/01/17 07:25:16;;;;;;;;;25.00;21.00;;;;;-146.37;100.00;59337.28;5023990;28;27915;-83
2023/01/17 07:27:42;;;;;;;;;20.00;19.33;;;;;-146.37;100.00;59337.28;5025447;28;30197;-83
2023/01/17 07:30:11;;;;;;;;;30.67;22.33;;;;;-146.37;100.00;59337.28;5043297;28;28454;-83
2023/01/17 07:32:37;;;;;;;;;26.00;21.67;;;;;-146.37;100.00;59337.28;5039961;28;28426;-83
2023/01/17 07:35:02;;;;;;;;;23.00;21.00;;;;;-146.37;100.00;59337.28;5041941;28;27941;-82
2023/01/17 07:37:27;;;;;;;;;23.67;21.67;;;;;-146.37;100.00;59337.28;5040735;28;28586;-83
2023/01/17 07:39:53;;;;;;;;;28.00;25.33;;;;;-146.37;100.00;59337.28;5036413;28;27865;-83
2023/01/17 07:42:23;;;;;;;;;26.00;24.00;;;;;-146.37;100.00;59337.28;5023116;28;27844;-83
2023/01/17 07:44:48;;;;;;;;;25.00;24.33;;;;;-146.37;100.00;59337.28;5039728;28;28537;-83
2023/01/17 07:47:14;;;;;;;;;20.00;20.00;;;;;-146.37;100.00;59337.28;5039717;28;28267;-82
2023/01/17 07:49:42;;;;;;;;;21.33;21.33;;;;;-146.37;100.00;59337.28;5039689;28;28581;-82
2023/01/17 07:52:08;;;;;;;;;21.33;17.33;;;;;-146.37;100.00;59337.28;5043171;28;27839;-82
2023/01/17 07:54:37;;;;;;;;;23.00;20.67;;;;;-146.37;100.00;59337.28;5043283;28;27827;-82
2023/01/17 07:57:02;;;;;;;;;21.00;21.00;;;;;-146.37;100.00;59337.28;5023858;28;28477;-82
2023/01/17 07:59:28;;;;;;;;;22.00;19.67;;;;;-146.37;100.00;59337.28;5043551;28;28525;-83
2023/01/17 08:01:54;;;;;;;;;19.67;17.00;;;;;-146.37;100.00;59337.28;5044462;28;28478;-82
2023/01/17 08:04:19;;;;;;;;;20.00;18.00;;;;;-146.37;100.00;59337.28;5041829;28;28443;-83
2023/01/17 08:07:31;;;;;;;;;24.00;19.00;;;;;-146.37;100.00;59337.28;5042866;28;28533;-83
2023/01/17 08:09:57;;;;;;;;;22.67;19.67;;;;;-146.37;100.00;59337.28;5025489;28;28559;-83
2023/01/17 08:12:24;;;;;;;;;26.67;25.33;;;;;-146.37;100.00;59337.28;5022233;28;28805;-82
2023/01/17 08:14:53;;;;;;;;;21.00;18.00;;;;;-146.37;100.00;59337.28;5026162;28;28875;-81
2023/01/17 08:17:37;;;;;;;;;24.67;22.67;;;;;-146.37;100.00;59337.28;5030084;28;29958;-83
2023/01/17 08:20:04;;;;;;;;;25.67;25.33;;;;;-146.37;100.00;59337.28;5022882;28;28598;-83
2023/01/17 08:22:30;;;;;;;;;26.67;23.00;;;;;-146.37;100.00;59337.28;5044854;28;28464;-83
2023/01/17 08:24:56;;;;;;;;;28.00;26.33;;;;;-146.37;100.00;59337.28;5044369;28;27912;-83
2023/01/17 08:27:22;;;;;;;;;27.33;25.00;;;;;-146.37;100.00;59337.28;5025453;28;29789;-83
2023/01/17 08:29:48;;;;;;;;;25.67;24.67;;;;;-146.37;100.00;59337.28;5018917;28;28432;-84
2023/01/17 08:32:20;;;;;;;;;22.67;21.67;;;;;-146.37;100.00;59337.28;5038631;28;28645;-82
2023/01/17 08:34:46;;;;;;;;;25.33;22.67;;;;;-146.37;100.00;59337.28;5026771;28;27973;-82
2023/01/17 08:37:14;;;;;;;;;28.33;24.33;;;;;-146.37;100.00;59337.28;5040967;28;30676;-82
2023/01/17 08:39:40;;;;;;;;;22.33;21.67;;;;;-146.37;100.00;59337.28;5023843;28;28493;-84
2023/01/17 08:42:05;;;;;;;;;22.33;18.67;;;;;-146.37;100.00;59337.28;5025619;28;28161;-84
2023/01/17 08:47:53;;;;;;;;;32.00;26.67;;;;;-146.37;100.00;59337.28;5049310;28;28385;-83
2023/01/17 08:50:26;;;;;;;;;22.67;22.67;;;;;-146.37;100.00;59337.28;5028317;28;28486;-83
2023/01/17 08:52:57;;;;;;;;;23.67;20.67;;;;;-146.37;100.00;59337.28;5025520;28;28480;-83
2023/01/17 08:55:22;;;;;;;;;33.33;27.67;;;;;-146.37;100.00;59337.28;5042928;28;27877;-82
2023/01/17 08:57:48;;;;;;;;;34.00;30.33;;;;;-146.37;100.00;59337.28;5041768;28;30228;-81
2023/01/17 09:00:14;;;;;;;;;22.00;22.00;;;;;-146.37;100.00;59337.28;5042639;28;28438;-82
2023/01/17 09:02:40;;;;;;;;;18.00;18.00;;;;;-146.37;100.00;59337.28;5025367;28;28433;-82
2023/01/17 09:05:06;;;;;;;;;28.67;27.67;;;;;-146.37;100.00;59337.28;5044493;28;27858;-83
2023/01/17 09:07:32;;;;;;;;;35.00;28.33;;;;;-146.37;100.00;59337.28;5026934;28;29736;-82
2023/01/17 09:09:57;;;;;;;;;31.00;25.33;;;;;-146.37;100.00;59337.28;5026087;28;29442;-83
2023/01/17 09:12:23;;;;;;;;;32.33;28.33;;;;;-146.37;100.00;59337.28;5048343;28;28525;-81
2023/01/17 09:14:52;;;;;;;;;31.33;25.00;;;;;-146.37;100.00;59337.28;5044804;28;28598;-82
2023/01/17 09:20:39;;;;;;;;;34.00;30.00;;;;;-146.37;100.00;59337.28;5045955;28;27998;-83
2023/01/17 09:23:04;;;;;;;;;31.33;28.67;;;;;-146.37;100.00;59337.28;5045121;28;28324;-82
2023/01/17 09:25:32;;;;;;;;;30.00;28.33;;;;;-146.37;100.00;59337.28;5045536;28;28391;-82
2023/01/17 09:27:58;;;;;;;;;31.67;27.00;;;;;-146.37;100.00;59337.28;5044866;28;30436;-84
2023/01/17 09:30:38;;;;;;;;;26.00;23.00;;;;;-146.37;100.00;59337.28;5040115;28;28860;-83
2023/01/17 09:33:17;;;;;;;;;29.00;29.00;;;;;-146.37;100.00;59337.28;4981010;28;27989;-82
2023/01/17 09:35:56;;;;;;;;;;;;;;;;;;;;;
2023/01/17 09:38:40;;;;;;;;;64.50;53.50;;;;;-146.37;100.00;59337.28;5032352;28;57424;-82
2023/01/17 09:41:29;;;;;;;;;26.67;21.33;;;;;-146.37;100.00;59337.28;5029364;28;29035;-82
2023/01/17 09:44:24;;;;;;;;;27.67;26.67;;;;;-146.37;100.00;59337.28;5028733;28;27947;-82
2023/01/17 09:46:58;;;;;;;;;30.33;28.33;;;;;-146.37;100.00;59337.28;5025850;28;28511;-82
2023/01/17 09:49:44;;;;;;;;;23.67;21.33;;;;;-146.37;100.00;59337.28;5028987;28;30023;-84
2023/01/17 09:52:22;;;;;;;;;31.67;26.00;;;;;-146.37;100.00;59337.28;5046639;28;27984;-83
2023/01/17 09:54:58;;;;;;;;;33.67;26.33;;;;;-146.37;100.00;59337.28;5045813;28;27896;-82
2023/01/17 10:01:17;;;;;;;;;26.00;22.67;;;;;-146.37;100.00;59337.28;5047399;28;28117;-83
2023/01/17 10:04:32;;;;;;;;;31.33;28.00;;;;;-146.37;100.00;59337.28;5029087;28;27941;-83
2023/01/17 10:07:13;;;;;;;;;35.67;27.00;;;;;-146.37;100.00;59337.28;5031280;28;27931;-82
2023/01/17 10:10:00;;;;;;;;;26.33;22.33;;;;;-146.37;100.00;59337.28;5041493;28;27876;-81
2023/01/17 10:12:52;;;;;;;;;31.00;27.00;;;;;-146.37;100.00;59337.28;5054127;28;29488;-82
2023/01/17 10:15:48;;;;;;;;;23.33;20.00;;;;;-146.37;100.00;59337.28;5046735;28;29500;-83
2023/01/17 10:18:27;;;;;;;;;24.67;22.00;;;;;-146.37;100.00;59337.28;5036576;28;27989;-82
2023/01/17 10:21:11;;;;;;;;;25.00;22.33;;;;;-146.37;100.00;59337.28;5036035;28;28836;-82
2023/01/17 10:23:49;;;;;;;;;25.67;23.00;;;;;-146.37;100.00;59337.28;5044106;28;28104;-82
2023/01/17 10:26:25;;;;;;;;;29.33;26.33;;;;;-146.37;100.00;59337.28;5026220;28;29018;-83
2023/01/17 10:28:57;;;;;;;;;33.00;25.00;;;;;-146.37;100.00;59337.28;5046493;28;27921;-82
2023/01/17 10:31:54;;;;;;;;;23.33;19.33;;;;;-146.37;100.00;59337.28;5044624;28;28316;-82
2023/01/17 10:37:38;;;;;;;;;;;;;;;;;;;;;
2023/01/17 10:41:01;;;;;;;;;;;;;;;;;;;;;
2023/01/17 10:44:05;;;;;;;;;;;;;;;;;;;;;
2023/01/17 10:46:52;;;;;;;;;;;;;;;;;;;;;
2023/01/17 10:49:24;;;;;;;;;20.00;17.33;;;;;-146.37;100.00;59337.28;5045840;28;56039;-82
2023/01/17 10:52:11;;;;;;;;;15.33;12.33;;;;;-146.37;100.00;59337.28;5023091;28;28436;-83
2023/01/17 10:55:33;;;;;;;;;18.33;18.33;;;;;-146.37;100.00;59337.28;5026312;28;28622;-82
2023/01/17 11:02:09;;;;;;;;;;;;;;;;;;;;;
2023/01/17 11:05:01;;;;;;;;;19.67;18.33;;;;;-146.37;100.00;59337.28;5023841;28;53777;-82
2023/01/17 11:07:38;;;;;;;;;15.00;15.00;;;;;-146.37;100.00;59337.28;5005558;28;28547;-83
2023/01/17 11:10:35;;;;;;;;;;;;;;;;;;;;;
2023/01/17 11:13:05;;;;;;;;;22.33;21.00;;;;;-146.37;100.00;59337.28;5004876;28;55668;-84
2023/01/17 11:15:38;;;;;;;;;20.33;17.33;;;;;-146.37;100.00;59337.28;5004196;28;28539;-84
2023/01/17 11:18:20;;;;;;;;;18.67;15.67;;;;;-146.37;100.00;59337.28;5007803;28;27933;-83
2023/01/17 11:21:16;;;;;;;;;21.00;19.33;;;;;-146.37;100.00;59337.28;5021947;28;28395;-83
2023/01/17 11:23:55;;;;;;;;;26.67;22.00;;;;;-146.37;100.00;59337.28;5009023;28;27967;-84
2023/01/17 11:26:27;;;;;;;;;20.67;19.33;;;;;-146.37;100.00;59337.28;5017333;28;28700;-81
2023/01/17 11:30:01;;;;;;;;;14.67;13.33;;;;;-146.37;100.00;59337.28;5013043;28;28743;-83
2023/01/17 11:32:32;;;;;;;;;21.00;16.33;;;;;-146.37;100.00;59337.28;5004076;28;29928;-83
2023/01/17 11:35:16;;;;;;;;;21.67;18.67;;;;;-146.37;100.00;59337.28;5003916;28;28626;-83
2023/01/17 11:38:15;;;;;;;;;20.00;17.67;;;;;-146.37;100.00;59337.28;5017152;28;28616;-83
2023/01/17 11:40:45;;;;;;;;;20.67;18.67;;;;;-146.37;100.00;59337.28;4965581;28;28693;-83
2023/01/17 11:43:23;;;;;;;;;19.33;18.00;;;;;-146.37;100.00;59337.28;4959257;28;30722;-84
2023/01/17 11:46:19;;;;;;;;;22.67;18.67;;;;;-146.37;100.00;59337.28;4987451;28;28013;-85
2023/01/17 11:48:58;;;;;;;;;19.67;19.67;;;;;-146.37;100.00;59337.28;5002431;28;27897;-84
2023/01/17 11:52:08;;;;;;;;;;;;;;;;;;;;;
2023/01/17 11:54:46;;;;;;;;;24.33;22.67;;;;;-146.37;100.00;59337.28;4984153;28;57388;-83
2023/01/17 11:57:23;;;;;;;;;19.00;19.00;;;;;-146.37;100.00;59337.28;4966624;28;28737;-82
2023/01/17 12:00:37;;;;;;;;;21.00;18.67;;;;;-146.37;100.00;59337.28;4989174;28;27833;-81
2023/01/17 12:03:14;;;;;;;;;26.33;21.33;;;;;-146.37;100.00;59337.28;4992167;28;27877;-82
2023/01/17 12:05:50;;;;;;;;;19.00;18.00;;;;;-146.37;100.00;59337.28;4990173;28;29921;-83
2023/01/17 12:08:52;;;;;;;;;20.00;18.33;;;;;-146.37;100.00;59337.28;4988973;28;28449;-83
2023/01/17 12:15:09;;;;;;;;;;;;;;;;;;;;;
2023/01/17 12:18:01;;;;;;;;;22.67;19.00;;;;;-146.37;100.00;59337.28;4978798;28;58133;-84
2023/01/17 12:21:03;;;;;;;;;20.67;18.00;;;;;-146.37;100.00;59337.28;4987266;28;28538;-86
2023/01/17 12:23:56;;;;;;;;;19.67;18.33;;;;;-146.37;100.00;59337.28;4987394;28;27914;-84
2023/01/17 12:26:39;;;;;;;;;23.33;21.00;;;;;-146.37;100.00;59337.28;5000640;28;27932;-84
2023/01/17 12:29:30;;;;;;;;;15.00;14.67;;;;;-146.37;100.00;59337.28;4996159;28;28471;-84
2023/01/17 12:32:08;;;;;;;;;16.00;14.00;;;;;-146.37;100.00;59337.28;5035439;28;28600;-83
2023/01/17 12:35:02;;;;;;;;;22.33;19.00;;;;;-146.37;100.00;59337.28;5044346;28;28552;-86
2023/01/17 12:37:54;;;;;;;;;20.33;16.67;;;;;-146.37;100.00;59337.28;5031765;28;28458;-85
2023/01/17 12:40:48;;;;;;;;;18.67;16.00;;;;;-146.37;100.00;59337.28;5043068;28;28560;-86
2023/01/17 12:43:29;;;;;;;;;18.00;14.00;;;;;-146.37;100.00;59337.28;5043864;28;28658;-86
2023/01/17 12:46:37;;;;;;;;;10.67;10.00;;;;;-146.37;100.00;59337.28;5044449;28;28811;-85
2023/01/17 12:49:40;;;;;;;;;20.00;19.00;;;;;-146.37;100.00;59337.28;5028927;28;28574;-84
2023/01/17 12:52:23;;;;;;;;;15.00;13.33;;;;;-146.37;100.00;59337.28;5044410;28;30134;-83
2023/01/17 12:55:01;;;;;;;;;14.00;14.00;;;;;-146.37;100.00;59337.28;5038030;28;28460;-84
2023/01/17 12:57:52;;;;;;;;;15.00;13.00;;;;;-146.37;100.00;59337.28;5045558;28;27836;-85
2023/01/17 13:00:41;;;;;;;;;15.00;15.00;;;;;-146.37;100.00;59337.28;5048109;28;28511;-84
2023/01/17 13:03:33;;;;;;;;;14.33;13.00;;;;;-146.37;100.00;59337.28;5046003;28;28093;-83
2023/01/17 13:06:07;;;;;;;;;19.67;17.67;;;;;-146.37;100.00;59337.28;5038267;28;28489;-86
2023/01/17 13:09:12;;;;;;;;;19.00;14.67;;;;;-146.37;100.00;59337.28;5036774;28;28327;-84
2023/01/17 13:11:52;;;;;;;;;14.33;12.33;;;;;-146.37;100.00;59337.28;4949739;28;28700;-84
2023/01/17 13:14:32;;;;;;;;;18.00;14.00;;;;;-146.37;100.00;59337.28;4950664;28;29893;-83
2023/01/17 13:17:22;;;;;;;;;12.67;10.00;;;;;-146.37;100.00;59337.28;4944052;28;29656;-84
2023/01/17 13:20:12;;;;;;;;;10.00;10.00;;;;;-146.37;100.00;59337.28;4941049;28;28421;-82
2023/01/17 13:22:41;;;;;;;;;15.00;11.00;;;;;-146.37;100.00;59337.28;4943144;28;28595;-85
2023/01/17 13:25:21;;;;;;;;;17.33;10.33;;;;;-146.37;100.00;59337.28;4951917;28;29961;-83